Warwick, Pennsylvania
Current Conditions -  °F | °C
As of 8:54 AM on Monday 24 Nov 2014 (Local Time) from KDYL Reporting Station
Overcast Overcast  
Wind Chill: 64°   Ceiling: 1400
Heat Index: 64°   Visibility: 10mi
Dew Point: 61°   Wind: 15mph
Humidity: 90%   Direction: 190°S
Pressure: 29.66"   Gusts: 21mph
Location:  40.2185°N, 75.0735°W
Report Text: KDYL 241354Z AUTO 19013G18KT 150V220 10SM OVC014 18/16 A2966 RMK AO2 SLP045 T01780161
Loading
Personal Weather Stations






























Interactive Weather Map New forecast layout! Learn more

10-Day Weather Forecast

Advertisements
Track Severe Weather on mobile